Sunbury, North Carolina
Current Conditions -  °F | °C
As of 9:55 AM on Wednesday 22 Oct 2014 (Local Time) from KCPK Reporting Station
Overcast Overcast  
Wind Chill: 57°   Ceiling: 1200
Heat Index: 57°   Visibility: 10mi
Dew Point: 54°   Wind: 16mph
Humidity: 88%   Direction: 300°WNW
Pressure: 29.86"   Gusts: 23mph
Location:  36.44°N, 76.61°W
Report Text: KCPK 221355Z AUTO 30014G20KT 10SM BKN012 BKN021 OVC044 14/12 A2986 RMK AO2 LTG DSNT NE
Loading
Personal Weather Stations






























Interactive Weather Map
Tropical Storm Tracking
New forecast layout! Learn more

10-Day Weather Forecast

Advertisements
Track Severe Weather on mobile